createdAt,value
2022-09-21T00:01:25.733Z,4.40
2022-09-21T00:03:54.920Z,4.20
2022-09-21T00:06:23.441Z,4.00
2022-09-21T00:08:52.719Z,3.80
2022-09-21T00:11:23.035Z,4.43
2022-09-21T00:13:53.258Z,4.13
2022-09-21T00:16:20.621Z,4.35
2022-09-21T00:18:48.566Z,4.93
2022-09-21T00:21:17.023Z,4.95
2022-09-21T00:23:47.083Z,5.15
2022-09-21T00:26:17.951Z,5.05
2022-09-21T00:28:45.683Z,4.70
2022-09-21T00:31:18.213Z,4.28
2022-09-21T00:33:47.185Z,5.55
2022-09-21T00:36:19.046Z,4.63
2022-09-21T00:38:54.451Z,4.57
2022-09-21T00:41:21.815Z,4.38
2022-09-21T00:44:09.888Z,4.55
2022-09-21T00:46:40.758Z,4.88
2022-09-21T00:49:08.656Z,5.50
2022-09-21T00:51:39.633Z,4.80
2022-09-21T00:54:18.109Z,4.50
2022-09-21T00:56:45.692Z,4.28
2022-09-21T00:59:14.040Z,4.82
2022-09-21T01:01:44.199Z,4.78
2022-09-21T01:04:12.036Z,4.63
2022-09-21T01:06:41.892Z,5.15
2022-09-21T01:09:11.607Z,5.18
2022-09-21T01:11:46.567Z,4.85
2022-09-21T01:14:31.643Z,4.50
2022-09-21T01:17:26.670Z,4.30
2022-09-21T01:20:08.774Z,4.95
2022-09-21T01:23:00.168Z,4.80
2022-09-21T01:26:02.251Z,4.60
2022-09-21T01:29:04.269Z,4.28
2022-09-21T01:31:51.627Z,4.57
2022-09-21T01:34:28.631Z,4.45
2022-09-21T01:36:59.135Z,4.10
2022-09-21T01:39:27.533Z,4.80
2022-09-21T01:41:58.874Z,4.63
2022-09-21T01:44:30.488Z,4.70
2022-09-21T01:47:02.793Z,4.72
2022-09-21T01:49:53.257Z,4.40
2022-09-21T01:52:37.920Z,4.60
2022-09-21T01:55:30.250Z,4.28
2022-09-21T01:58:03.208Z,4.15
2022-09-21T02:00:34.630Z,4.43
2022-09-21T02:03:29.578Z,4.10
2022-09-21T02:06:02.721Z,4.35
2022-09-21T02:08:35.174Z,4.20
2022-09-21T02:11:03.167Z,4.00
2022-09-21T02:13:38.926Z,3.65
2022-09-21T02:16:05.555Z,4.47
2022-09-21T02:19:00.014Z,3.70
2022-09-21T02:21:41.859Z,3.40
2022-09-21T02:24:23.797Z,3.55
2022-09-21T02:27:23.022Z,3.53
2022-09-21T02:30:06.178Z,3.58
2022-09-21T02:33:13.105Z,3.55
2022-09-21T02:35:58.313Z,3.40
2022-09-21T02:38:47.827Z,3.45
2022-09-21T02:41:20.054Z,3.22
2022-09-21T02:44:04.734Z,3.05
2022-09-21T02:46:53.722Z,3.00
2022-09-21T02:49:30.439Z,3.00
2022-09-21T02:52:05.483Z,3.13
2022-09-21T02:54:33.988Z,2.90
2022-09-21T02:57:06.635Z,2.58
2022-09-21T02:59:33.716Z,2.63
2022-09-21T03:02:03.999Z,2.78
2022-09-21T03:04:33.574Z,2.88
2022-09-21T03:07:00.260Z,2.72
2022-09-21T03:09:26.878Z,2.65
2022-09-21T03:11:56.496Z,2.40
2022-09-21T03:14:25.755Z,2.75
2022-09-21T03:16:52.516Z,3.38
2022-09-21T03:19:22.031Z,3.30
2022-09-21T03:21:48.753Z,3.58
2022-09-21T03:24:35.391Z,3.53
2022-09-21T03:27:07.268Z,3.22
2022-09-21T03:29:33.943Z,4.10
2022-09-21T03:32:02.719Z,4.03
2022-09-21T03:34:34.425Z,3.42
2022-09-21T03:37:06.211Z,3.78
2022-09-21T03:39:32.875Z,3.50
2022-09-21T03:42:08.344Z,3.13
2022-09-21T03:44:35.354Z,3.10
2022-09-21T03:47:02.069Z,3.05
2022-09-21T03:49:29.320Z,2.70
2022-09-21T03:51:57.248Z,3.22
2022-09-21T03:54:24.397Z,2.85
2022-09-21T03:56:51.036Z,3.05
2022-09-21T03:59:17.737Z,3.13
2022-09-21T04:01:46.720Z,3.13
2022-09-21T04:04:13.363Z,3.30
2022-09-21T04:06:41.301Z,3.33
2022-09-21T04:09:08.165Z,4.65
2022-09-21T04:11:37.027Z,4.32
2022-09-21T04:14:03.951Z,4.47
2022-09-21T04:16:30.586Z,4.55
2022-09-21T04:18:57.397Z,3.92
2022-09-21T04:21:26.803Z,3.90
2022-09-21T04:23:56.576Z,3.80
2022-09-21T04:26:34.985Z,4.35
2022-09-21T04:29:02.323Z,3.85
2022-09-21T04:31:30.306Z,3.78
2022-09-21T04:34:00.826Z,2.92
2022-09-21T04:36:33.160Z,3.50
2022-09-21T04:39:07.862Z,3.10
2022-09-21T04:41:42.125Z,3.08
2022-09-21T04:44:08.834Z,4.28
2022-09-21T04:46:35.639Z,3.97
2022-09-21T04:49:04.954Z,3.28
2022-09-21T04:51:34.556Z,3.20
2022-09-21T04:54:03.500Z,3.70
2022-09-21T04:56:30.429Z,3.50
2022-09-21T04:59:00.009Z,3.55
2022-09-21T05:01:26.696Z,3.65
2022-09-21T05:03:53.329Z,4.10
2022-09-21T05:06:22.781Z,4.10
2022-09-21T05:09:10.590Z,3.47
2022-09-21T05:11:37.378Z,3.78
2022-09-21T05:14:09.863Z,3.70
2022-09-21T05:16:39.308Z,3.75
2022-09-21T05:19:08.416Z,3.67
2022-09-21T05:21:36.519Z,4.00
2022-09-21T05:24:09.820Z,3.80
2022-09-21T05:26:41.888Z,4.18
2022-09-21T05:29:11.644Z,3.95
2022-09-21T05:31:47.130Z,4.57
2022-09-21T05:34:32.998Z,4.47
2022-09-21T05:37:15.273Z,4.53
2022-09-21T05:39:44.791Z,4.70
2022-09-21T05:42:13.910Z,4.07
2022-09-21T05:44:40.937Z,4.18
2022-09-21T05:47:35.487Z,5.00
2022-09-21T05:50:28.215Z,5.90
2022-09-21T05:53:00.447Z,5.70
2022-09-21T05:55:33.389Z,5.45
2022-09-21T05:58:22.868Z,5.75
2022-09-21T06:01:15.270Z,5.68
2022-09-21T06:03:43.308Z,6.93
2022-09-21T06:06:13.401Z,6.28
2022-09-21T06:08:40.034Z,6.18
2022-09-21T06:11:10.091Z,5.60
2022-09-21T06:13:37.553Z,5.68
2022-09-21T06:16:07.355Z,5.80
2022-09-21T06:18:39.301Z,6.35
2022-09-21T06:21:14.654Z,5.57
2022-09-21T06:23:41.488Z,5.80
2022-09-21T06:26:08.248Z,5.85
2022-09-21T06:28:34.852Z,6.07
2022-09-21T06:31:04.311Z,5.80
2022-09-21T06:33:30.985Z,5.82
2022-09-21T06:36:03.574Z,6.50
2022-09-21T06:38:30.519Z,6.28
2022-09-21T06:41:05.542Z,6.57
2022-09-21T06:43:33.936Z,6.70
2022-09-21T06:46:02.282Z,6.53
2022-09-21T06:48:32.756Z,6.95
2022-09-21T06:51:00.990Z,6.32
2022-09-21T06:53:31.425Z,6.60
2022-09-21T06:56:09.005Z,6.50
2022-09-21T06:58:37.838Z,6.30
2022-09-21T07:01:09.898Z,7.18
2022-09-21T07:03:37.267Z,7.18
2022-09-21T07:06:07.369Z,6.93
2022-09-21T07:11:24.194Z,6.63
2022-09-21T07:13:53.859Z,6.03
2022-09-21T07:16:21.723Z,5.38
2022-09-21T07:18:49.083Z,5.43
2022-09-21T07:21:18.508Z,5.18
2022-09-21T07:23:49.821Z,5.20
2022-09-21T07:26:20.004Z,4.65
2022-09-21T07:28:46.629Z,4.90
2022-09-21T07:31:17.913Z,4.78
2022-09-21T07:33:48.399Z,4.95
2022-09-21T07:36:19.890Z,5.38
2022-09-21T07:38:46.508Z,4.57
2022-09-21T07:41:14.359Z,4.40
2022-09-21T07:43:44.838Z,4.80
2022-09-21T07:46:14.656Z,4.40
2022-09-21T07:48:42.740Z,4.50
2022-09-21T07:51:14.376Z,3.90
2022-09-21T07:53:49.748Z,4.43
2022-09-21T07:56:20.164Z,4.13
2022-09-21T07:59:05.346Z,4.28
2022-09-21T08:01:36.199Z,4.20
2022-09-21T08:04:07.376Z,3.63
2022-09-21T08:06:36.138Z,3.72
2022-09-21T08:09:04.182Z,3.42
2022-09-21T08:11:31.625Z,3.35
2022-09-21T08:14:00.826Z,2.95
2022-09-21T08:16:29.242Z,3.28
2022-09-21T08:18:56.127Z,2.80
2022-09-21T08:21:25.438Z,2.53
2022-09-21T08:23:54.478Z,2.60
2022-09-21T08:26:21.425Z,2.65
2022-09-21T08:28:51.640Z,2.40
2022-09-21T08:31:21.047Z,1.88
2022-09-21T08:33:49.983Z,2.03
2022-09-21T08:36:18.723Z,2.20
2022-09-21T08:38:45.667Z,2.30
2022-09-21T08:41:46.343Z,2.42
2022-09-21T08:44:31.327Z,2.42
2022-09-21T08:47:17.442Z,2.00
2022-09-21T08:49:54.005Z,1.70
2022-09-21T08:52:24.994Z,2.30
2022-09-21T08:54:56.909Z,2.45
2022-09-21T08:57:29.547Z,2.42
2022-09-21T08:59:59.721Z,2.45
2022-09-21T09:02:39.266Z,1.98
2022-09-21T09:05:33.024Z,2.03
2022-09-21T09:08:19.541Z,2.45
2022-09-21T09:11:20.669Z,1.90
2022-09-21T09:14:05.831Z,1.60
2022-09-21T09:17:02.754Z,2.28
2022-09-21T09:19:55.415Z,1.67
2022-09-21T09:22:40.438Z,1.33
2022-09-21T09:25:19.219Z,1.60
2022-09-21T09:27:50.689Z,1.40
2022-09-21T09:30:33.568Z,1.40
2022-09-21T09:33:24.313Z,1.40
2022-09-21T09:36:07.000Z,1.58
2022-09-21T09:38:39.732Z,1.42
2022-09-21T09:41:35.144Z,1.60
2022-09-21T09:44:07.876Z,1.65
2022-09-21T09:47:09.971Z,1.63
2022-09-21T09:49:58.409Z,1.35
2022-09-21T09:52:26.005Z,1.30
2022-09-21T09:54:54.831Z,0.95
2022-09-21T09:57:31.210Z,1.40
2022-09-21T10:00:09.049Z,1.00
2022-09-21T10:02:46.653Z,1.05
2022-09-21T10:05:22.673Z,1.05
2022-09-21T10:07:50.463Z,1.50
2022-09-21T10:10:29.261Z,1.15
2022-09-21T10:13:07.347Z,1.20
2022-09-21T10:15:34.062Z,0.90
2022-09-21T10:18:21.442Z,0.80
2022-09-21T10:21:20.750Z,0.90
2022-09-21T10:23:53.026Z,1.00
2022-09-21T10:26:20.598Z,1.20
2022-09-21T10:29:22.274Z,1.10
2022-09-21T10:32:04.242Z,0.90
2022-09-21T10:34:33.156Z,1.08
2022-09-21T10:37:22.712Z,1.25
2022-09-21T10:39:49.382Z,0.95
2022-09-21T10:42:18.855Z,0.90
2022-09-21T10:45:16.322Z,0.68
2022-09-21T10:50:35.069Z,0.90
2022-09-21T10:53:15.020Z,0.40
2022-09-21T10:56:11.958Z,0.43
2022-09-21T10:59:20.487Z,0.60
2022-09-21T11:01:52.376Z,0.60
2022-09-21T11:04:37.215Z,1.02
2022-09-21T11:07:39.838Z,0.80
2022-09-21T11:10:37.508Z,0.60
2022-09-21T11:13:34.932Z,0.70
2022-09-21T11:16:14.234Z,0.50
2022-09-21T11:18:49.829Z,0.57
2022-09-21T11:21:38.313Z,0.50
2022-09-21T11:24:23.943Z,0.52
2022-09-21T11:27:04.046Z,0.75
2022-09-21T11:29:48.228Z,0.60
2022-09-21T11:32:28.094Z,0.40
2022-09-21T11:35:35.669Z,0.50
2022-09-21T11:38:34.617Z,0.70
2022-09-21T11:41:26.047Z,0.80
2022-09-21T11:44:04.916Z,0.60
2022-09-21T11:46:42.682Z,0.60
2022-09-21T11:49:43.057Z,0.77
2022-09-21T11:52:09.802Z,0.40
2022-09-21T11:54:42.370Z,0.60
2022-09-21T11:57:28.803Z,0.75
2022-09-21T12:00:26.770Z,0.68
2022-09-21T12:03:05.274Z,0.88
2022-09-21T12:05:37.134Z,0.70
2022-09-21T12:08:46.899Z,0.70
2022-09-21T12:11:28.676Z,0.50
2022-09-21T12:14:22.579Z,0.50
2022-09-21T12:17:24.815Z,0.50
2022-09-21T12:20:11.970Z,0.50
2022-09-21T12:22:45.025Z,0.50
2022-09-21T12:25:17.322Z,0.50
2022-09-21T12:27:54.801Z,0.38
2022-09-21T12:30:24.202Z,0.60
2022-09-21T12:33:19.377Z,0.50
2022-09-21T12:36:18.617Z,0.38
2022-09-21T12:39:07.985Z,0.60
2022-09-21T12:41:53.901Z,0.40
2022-09-21T12:44:52.309Z,0.60
2022-09-21T12:47:28.952Z,0.68
2022-09-21T12:52:28.148Z,0.70
2022-09-21T12:55:14.397Z,0.40
2022-09-21T12:58:16.884Z,0.45
2022-09-21T13:01:06.127Z,0.50
2022-09-21T13:03:44.098Z,0.50
2022-09-21T13:06:38.253Z,0.70
2022-09-21T13:09:12.703Z,0.40
2022-09-21T13:11:56.646Z,0.52
2022-09-21T13:14:34.869Z,0.63
2022-09-21T13:17:07.485Z,1.13
2022-09-21T13:19:35.712Z,0.40
2022-09-21T13:22:24.226Z,0.38
2022-09-21T13:25:22.136Z,1.42
2022-09-21T13:28:24.222Z,1.83
2022-09-21T13:31:39.482Z,0.50
2022-09-21T13:34:22.428Z,0.65
2022-09-21T13:37:17.100Z,0.50
2022-09-21T13:40:17.113Z,0.50
2022-09-21T13:42:52.676Z,0.50
2022-09-21T13:45:19.420Z,0.17
2022-09-21T13:47:49.125Z,0.55
2022-09-21T13:50:31.740Z,0.43
2022-09-21T13:53:02.783Z,0.40
2022-09-21T13:55:35.947Z,0.30
2022-09-21T13:58:20.321Z,0.40
2022-09-21T14:00:54.277Z,0.50
2022-09-21T14:03:32.494Z,0.60
2022-09-21T14:06:17.968Z,0.40
2022-09-21T14:09:00.065Z,0.30
2022-09-21T14:11:34.655Z,0.45
2022-09-21T14:14:19.154Z,0.35
2022-09-21T14:16:58.835Z,0.40
2022-09-21T14:19:30.565Z,0.50
2022-09-21T14:22:10.768Z,0.25
2022-09-21T14:24:51.172Z,0.60
2022-09-21T14:27:28.184Z,0.30
2022-09-21T14:30:19.862Z,0.32
2022-09-21T14:33:02.305Z,0.40
2022-09-21T14:35:37.579Z,0.50
2022-09-21T14:38:13.873Z,0.30
2022-09-21T14:40:48.373Z,0.32
2022-09-21T14:43:20.662Z,0.47
2022-09-21T14:46:19.312Z,0.50
2022-09-21T14:49:23.065Z,0.40
2022-09-21T14:52:27.663Z,0.40
2022-09-21T14:55:19.748Z,0.40
2022-09-21T14:58:11.668Z,0.30
2022-09-21T15:00:42.791Z,0.50
2022-09-21T15:03:39.172Z,0.38
2022-09-21T15:06:56.702Z,0.40
2022-09-21T15:10:21.392Z,0.50
2022-09-21T15:12:57.976Z,0.30
2022-09-21T15:15:53.075Z,0.40
2022-09-21T15:18:23.004Z,0.40
2022-09-21T15:21:01.657Z,0.40
2022-09-21T15:23:32.087Z,0.43
2022-09-21T15:26:08.652Z,0.40
2022-09-21T15:31:25.259Z,0.47
2022-09-21T15:33:53.300Z,0.30
2022-09-21T15:36:21.573Z,0.30
2022-09-21T15:38:50.671Z,0.50
2022-09-21T15:41:41.023Z,0.40
2022-09-21T15:44:17.300Z,0.60
2022-09-21T15:46:48.116Z,0.30
2022-09-21T15:49:17.824Z,0.32
2022-09-21T15:51:46.051Z,0.50
2022-09-21T15:54:25.420Z,0.57
2022-09-21T15:56:52.128Z,0.50
2022-09-21T15:59:22.156Z,0.60
2022-09-21T16:01:52.801Z,0.50
2022-09-21T16:04:22.232Z,0.73
2022-09-21T16:07:07.098Z,0.50
2022-09-21T16:09:39.759Z,0.60
2022-09-21T16:12:35.999Z,0.63
2022-09-21T16:15:07.952Z,0.40
2022-09-21T16:17:52.563Z,0.40
2022-09-21T16:20:23.293Z,0.60
2022-09-21T16:22:54.729Z,0.40
2022-09-21T16:25:21.539Z,0.40
2022-09-21T16:28:00.451Z,0.40
2022-09-21T16:30:44.675Z,0.50
2022-09-21T16:33:40.959Z,0.30
2022-09-21T16:36:32.411Z,0.47
2022-09-21T16:39:00.310Z,0.60
2022-09-21T16:41:35.032Z,0.80
2022-09-21T16:44:02.775Z,1.08
2022-09-21T16:46:31.710Z,0.60
2022-09-21T16:48:59.161Z,0.60
2022-09-21T16:51:27.258Z,0.40
2022-09-21T16:53:55.176Z,0.50
2022-09-21T16:56:21.572Z,0.60
2022-09-21T16:58:47.990Z,0.50
2022-09-21T17:01:21.844Z,0.63
2022-09-21T17:03:48.340Z,0.50
2022-09-21T17:06:20.748Z,0.55
2022-09-21T17:08:48.624Z,0.50
2022-09-21T17:11:23.035Z,0.55
2022-09-21T17:13:50.531Z,0.50
2022-09-21T17:16:19.098Z,0.75
2022-09-21T17:18:47.147Z,0.60
2022-09-21T17:21:14.516Z,0.65
2022-09-21T17:23:45.328Z,0.52
2022-09-21T17:26:17.617Z,0.50
2022-09-21T17:28:44.422Z,0.63
2022-09-21T17:31:18.953Z,0.68
2022-09-21T17:33:47.750Z,0.60
2022-09-21T17:36:15.938Z,0.82
2022-09-21T17:38:43.292Z,0.60
2022-09-21T17:41:43.638Z,0.63
2022-09-21T17:44:17.254Z,0.68
2022-09-21T17:46:59.335Z,0.70
2022-09-21T17:49:26.272Z,0.70
2022-09-21T17:52:11.247Z,0.93
2022-09-21T17:54:39.826Z,0.65
2022-09-21T17:57:22.855Z,0.98
2022-09-21T17:59:59.627Z,0.70
2022-09-21T18:02:26.418Z,0.90
2022-09-21T18:05:00.626Z,0.80
2022-09-21T18:07:27.381Z,0.90
2022-09-21T18:09:54.411Z,0.90
2022-09-21T18:12:48.874Z,1.20
2022-09-21T18:15:15.658Z,0.98
2022-09-21T18:18:12.624Z,1.38
2022-09-21T18:21:04.515Z,1.15
2022-09-21T18:23:56.498Z,1.35
2022-09-21T18:26:23.427Z,1.48
2022-09-21T18:28:56.941Z,1.80
2022-09-21T18:31:47.947Z,2.30
2022-09-21T18:34:29.117Z,3.53
2022-09-21T18:37:12.537Z,3.40
2022-09-21T18:40:02.460Z,3.00
2022-09-21T18:42:57.684Z,3.00
2022-09-21T18:45:28.752Z,3.63
2022-09-21T18:48:13.590Z,3.65
2022-09-21T18:50:55.034Z,3.10
2022-09-21T18:53:34.619Z,2.88
2022-09-21T18:56:01.327Z,2.92
2022-09-21T18:58:30.038Z,2.38
2022-09-21T19:00:56.993Z,2.72
2022-09-21T19:03:23.859Z,2.50
2022-09-21T19:06:26.320Z,2.50
2022-09-21T19:09:06.702Z,2.10
2022-09-21T19:11:53.479Z,1.92
2022-09-21T19:14:33.815Z,1.98
2022-09-21T19:17:23.405Z,1.98
2022-09-21T19:20:05.041Z,1.80
2022-09-21T19:23:00.505Z,2.13
2022-09-21T19:25:40.098Z,1.90
2022-09-21T19:28:28.789Z,1.58
2022-09-21T19:31:02.746Z,1.40
2022-09-21T19:33:49.628Z,1.25
2022-09-21T19:36:19.180Z,1.45
2022-09-21T19:38:45.853Z,1.52
2022-09-21T19:41:42.912Z,1.45
2022-09-21T19:44:16.352Z,1.45
2022-09-21T19:47:12.111Z,1.40
2022-09-21T19:49:55.074Z,1.58
2022-09-21T19:52:32.226Z,2.10
2022-09-21T19:55:17.945Z,1.38
2022-09-21T19:58:03.288Z,1.67
2022-09-21T20:00:32.005Z,1.40
2022-09-21T20:02:58.412Z,1.48
2022-09-21T20:05:32.667Z,1.70
2022-09-21T20:08:25.147Z,1.85
2022-09-21T20:11:15.922Z,1.90
2022-09-21T20:14:12.665Z,1.92
2022-09-21T20:16:55.033Z,1.85
2022-09-21T20:19:46.327Z,1.88
2022-09-21T20:22:18.162Z,1.92
2022-09-21T20:24:53.568Z,1.70
2022-09-21T20:27:34.924Z,2.03
2022-09-21T20:30:05.174Z,1.80
2022-09-21T20:32:33.094Z,2.00
2022-09-21T20:35:00.553Z,1.70
2022-09-21T20:37:30.169Z,1.60
2022-09-21T20:39:56.549Z,1.77
2022-09-21T20:42:24.769Z,2.25
2022-09-21T20:44:51.648Z,2.10
2022-09-21T20:47:21.460Z,1.80
2022-09-21T20:49:48.753Z,2.20
2022-09-21T20:52:17.312Z,2.83
2022-09-21T20:54:48.988Z,2.15
2022-09-21T20:57:16.771Z,2.30
2022-09-21T20:59:43.469Z,2.58
2022-09-21T21:02:11.544Z,2.10
2022-09-21T21:04:37.985Z,2.10
2022-09-21T21:07:04.421Z,1.83
2022-09-21T21:09:30.953Z,2.08
2022-09-21T21:11:57.385Z,2.40
2022-09-21T21:14:23.883Z,2.80
2022-09-21T21:16:50.278Z,2.90
2022-09-21T21:19:17.559Z,2.80
2022-09-21T21:21:44.823Z,2.40
2022-09-21T21:24:29.962Z,2.90
2022-09-21T21:27:02.237Z,2.22
2022-09-21T21:29:30.085Z,2.40
2022-09-21T21:31:56.539Z,2.75
2022-09-21T21:34:23.197Z,2.38
2022-09-21T21:36:49.592Z,2.17
2022-09-21T21:39:16.052Z,2.30
2022-09-21T21:41:44.574Z,2.33
2022-09-21T21:44:11.568Z,2.60
2022-09-21T21:46:38.294Z,2.25
2022-09-21T21:49:07.098Z,2.70
2022-09-21T21:51:33.762Z,2.42
2022-09-21T21:54:00.390Z,2.33
2022-09-21T21:56:26.845Z,2.30
2022-09-21T21:58:54.227Z,2.33
2022-09-21T22:01:26.683Z,2.17
2022-09-21T22:04:02.743Z,2.30
2022-09-21T22:06:30.965Z,2.03
2022-09-21T22:08:57.713Z,2.55
2022-09-21T22:11:26.699Z,2.13
2022-09-21T22:13:54.940Z,2.17
2022-09-21T22:16:24.155Z,2.20
2022-09-21T22:18:52.151Z,2.30
2022-09-21T22:21:24.732Z,2.30
2022-09-21T22:23:57.781Z,2.47
2022-09-21T22:26:25.892Z,2.30
2022-09-21T22:28:58.367Z,2.45
2022-09-21T22:31:32.668Z,2.03
2022-09-21T22:33:59.891Z,2.67
2022-09-21T22:36:29.540Z,2.40
2022-09-21T22:38:56.860Z,2.40
2022-09-21T22:41:26.251Z,1.92
2022-09-21T22:43:54.293Z,2.10
2022-09-21T22:46:21.624Z,1.90
2022-09-21T22:48:48.232Z,2.20
2022-09-21T22:51:16.104Z,2.40
2022-09-21T22:53:43.286Z,2.40
2022-09-21T22:56:21.680Z,2.22
2022-09-21T22:58:50.816Z,2.17
2022-09-21T23:01:18.756Z,2.20
2022-09-21T23:03:47.669Z,2.13
2022-09-21T23:06:18.474Z,2.05
2022-09-21T23:08:50.180Z,2.40
2022-09-21T23:11:31.875Z,2.10
2022-09-21T23:13:59.647Z,2.28
2022-09-21T23:16:27.859Z,2.20
2022-09-21T23:18:54.375Z,2.13
2022-09-21T23:21:23.564Z,2.10
2022-09-21T23:23:54.692Z,2.05
2022-09-21T23:26:22.691Z,2.22
2022-09-21T23:28:55.442Z,2.28
2022-09-21T23:31:22.982Z,2.40
2022-09-21T23:33:52.149Z,2.40
2022-09-21T23:36:22.069Z,2.17
2022-09-21T23:38:50.157Z,2.40
2022-09-21T23:41:22.633Z,2.40
2022-09-21T23:43:49.518Z,2.15
2022-09-21T23:46:18.767Z,2.45
2022-09-21T23:48:45.963Z,2.25
2022-09-21T23:51:13.061Z,2.25
2022-09-21T23:53:40.076Z,1.98
2022-09-21T23:56:11.391Z,2.00
2022-09-21T23:58:37.761Z,2.10
